Terminal Aerodrome Forecast
Issued by NWS

Home | Current Version | Previous Version | Text Only | Print | Product List | Glossary On
Versions: 1 2 3 4 5 6 7 8 9 10 11 12 13 14 15 16 17 18
000
FTUS43 KSGF 271207 AAA
TAFJLN
TAF AMD
KJLN 271207Z 2712/2812 17003KT P6SM SCT250
     FM271500 19015G22KT P6SM SCT025 BKN250
     FM271800 22013G20KT P6SM SCT250
     FM280000 24010KT P6SM SKC=

USA.gov is the U.S. government's official web portal to all federal, state and local government web resources and services.